createdAt,value
2024-02-20T00:00:24.675Z,101057.25
2024-02-20T00:03:27.277Z,101043.34
2024-02-20T00:06:30.823Z,101048.59
2024-02-20T00:09:33.204Z,101051.56
2024-02-20T00:12:38.545Z,101045.31
2024-02-20T00:15:41.877Z,101046.94
2024-02-20T00:18:44.063Z,101052.41
2024-02-20T00:21:46.886Z,101035.53
2024-02-20T00:24:49.330Z,101027.37
2024-02-20T00:27:51.742Z,101031.22
2024-02-20T00:30:53.849Z,101032.03
2024-02-20T00:33:56.304Z,101031.81
2024-02-20T00:36:58.448Z,101042.16
2024-02-20T00:40:00.874Z,101043.81
2024-02-20T00:43:03.901Z,101028.72
2024-02-20T00:46:06.346Z,101031.75
2024-02-20T00:49:08.611Z,101025.75
2024-02-20T00:52:11.887Z,101024.09
2024-02-20T00:55:14.631Z,101025.75
2024-02-20T00:58:17.204Z,101018.62
2024-02-20T01:01:19.549Z,101014.75
2024-02-20T01:04:22.028Z,101013.72
2024-02-20T01:07:25.668Z,101008.75
2024-02-20T01:10:28.205Z,101009.56
2024-02-20T01:13:31.714Z,101001.62
2024-02-20T01:16:34.218Z,100998.38
2024-02-20T01:19:36.406Z,101003.28
2024-02-20T01:22:40.452Z,101004.88
2024-02-20T01:25:42.801Z,101003.78
2024-02-20T01:28:45.219Z,100997.72
2024-02-20T01:31:48.497Z,100994.41
2024-02-20T01:34:51.047Z,100989.53
2024-02-20T01:37:54.010Z,100985.69
2024-02-20T01:40:56.408Z,100978.25
2024-02-20T01:43:59.620Z,100975.25
2024-02-20T01:47:03.011Z,100965.94
2024-02-20T01:50:06.879Z,100961.50
2024-02-20T01:53:09.759Z,100958.91
2024-02-20T01:56:14.403Z,100960.47
2024-02-20T01:59:17.539Z,100957.44
2024-02-20T02:02:21.288Z,100961.00
2024-02-20T02:05:23.868Z,100952.19
2024-02-20T02:08:26.228Z,100964.84
2024-02-20T02:11:28.916Z,100968.16
2024-02-20T02:14:31.122Z,100958.84
2024-02-20T02:17:33.591Z,100964.78
2024-02-20T02:20:35.819Z,100962.31
2024-02-20T02:23:38.173Z,100968.63
2024-02-20T02:26:40.320Z,100974.09
2024-02-20T02:29:42.743Z,100970.47
2024-02-20T02:32:44.920Z,100973.75
2024-02-20T02:35:47.483Z,100973.28
2024-02-20T02:38:49.544Z,100966.41
2024-02-20T02:41:52.183Z,100962.31
2024-02-20T02:44:54.234Z,100961.88
2024-02-20T02:47:56.642Z,100969.03
2024-02-20T02:50:58.744Z,100976.44
2024-02-20T02:54:01.796Z,100972.37
2024-02-20T02:57:04.003Z,100978.44
2024-02-20T03:00:10.284Z,100963.66
2024-02-20T03:03:12.391Z,100973.78
2024-02-20T03:06:15.261Z,100976.28
2024-02-20T03:09:19.604Z,100973.69
2024-02-20T03:12:21.935Z,100979.47
2024-02-20T03:15:24.210Z,100978.12
2024-02-20T03:18:27.268Z,100975.66
2024-02-20T03:21:29.354Z,100987.19
2024-02-20T03:24:31.698Z,100973.56
2024-02-20T03:27:33.776Z,100975.22
2024-02-20T03:30:36.151Z,100981.59
2024-02-20T03:33:38.670Z,100983.84
2024-02-20T03:36:41.227Z,100983.38
2024-02-20T03:39:43.266Z,100988.03
2024-02-20T03:42:46.165Z,100984.75
2024-02-20T03:45:48.307Z,100985.87
2024-02-20T03:48:50.873Z,100985.09
2024-02-20T03:51:53.130Z,100994.41
2024-02-20T03:54:55.560Z,100986.25
2024-02-20T03:57:57.744Z,101001.03
2024-02-20T04:01:00.467Z,100997.78
2024-02-20T04:04:04.091Z,101004.13
2024-02-20T04:07:06.338Z,101008.78
2024-02-20T04:10:09.396Z,101004.97
2024-02-20T04:13:11.690Z,101008.56
2024-02-20T04:16:14.248Z,101011.31
2024-02-20T04:19:16.421Z,101014.62
2024-02-20T04:22:18.995Z,101013.28
2024-02-20T04:25:21.968Z,101019.84
2024-02-20T04:28:24.503Z,101016.56
2024-02-20T04:31:27.095Z,101020.97
2024-02-20T04:34:29.635Z,101007.84
2024-02-20T04:37:31.964Z,100996.47
2024-02-20T04:40:34.480Z,101020.97
2024-02-20T04:43:38.360Z,101016.56
2024-02-20T04:46:40.967Z,101022.88
2024-02-20T04:49:44.116Z,101023.69
2024-02-20T04:52:46.588Z,101024.50
2024-02-20T04:55:48.800Z,101029.97
2024-02-20T04:58:51.235Z,101027.50
2024-02-20T05:01:53.750Z,101030.25
2024-02-20T05:04:57.284Z,101028.09
2024-02-20T05:07:59.753Z,101005.25
2024-02-20T05:11:02.422Z,101024.00
2024-02-20T05:14:04.744Z,101023.19
2024-02-20T05:17:07.125Z,101032.50
2024-02-20T05:20:10.894Z,101033.91
2024-02-20T05:23:13.396Z,101029.28
2024-02-20T05:26:15.504Z,101032.00
2024-02-20T05:29:17.835Z,101041.31
2024-02-20T05:32:21.190Z,101034.78
2024-02-20T05:35:23.772Z,101037.00
2024-02-20T05:38:25.909Z,101047.94
2024-02-20T05:41:29.840Z,101042.47
2024-02-20T05:44:31.918Z,101055.03
2024-02-20T05:47:34.971Z,101061.06
2024-02-20T05:50:37.240Z,101057.22
2024-02-20T05:53:39.851Z,101050.66
2024-02-20T05:56:44.235Z,101062.69
2024-02-20T05:59:46.663Z,101076.59
2024-02-20T06:02:48.919Z,101080.69
2024-02-20T06:05:51.421Z,101078.47
2024-02-20T06:08:53.614Z,101082.84
2024-02-20T06:11:56.058Z,101082.28
2024-02-20T06:14:58.166Z,101076.72
2024-02-20T06:18:00.825Z,101084.87
2024-02-20T06:21:03.803Z,101080.50
2024-02-20T06:24:06.238Z,101076.63
2024-02-20T06:27:09.232Z,101090.50
2024-02-20T06:30:13.750Z,101082.56
2024-02-20T06:33:16.183Z,101087.97
2024-02-20T06:36:18.658Z,101086.00
2024-02-20T06:39:20.795Z,101100.50
2024-02-20T06:42:23.530Z,101093.38
2024-02-20T06:45:25.675Z,101090.28
2024-02-20T06:48:30.757Z,101087.81
2024-02-20T06:51:33.482Z,101090.47
2024-02-20T06:54:35.892Z,101087.69
2024-02-20T06:57:40.929Z,101090.63
2024-02-20T07:00:43.498Z,101099.78
2024-02-20T07:03:46.940Z,101090.66
2024-02-20T07:06:49.403Z,101098.44
2024-02-20T07:09:51.581Z,101101.34
2024-02-20T07:12:56.695Z,101100.63
2024-02-20T07:15:58.937Z,101114.44
2024-02-20T07:19:01.568Z,101103.62
2024-02-20T07:22:04.460Z,101109.78
2024-02-20T07:25:07.085Z,101109.06
2024-02-20T07:28:12.128Z,101108.59
2024-02-20T07:31:21.385Z,101112.13
2024-02-20T07:34:23.689Z,101109.13
2024-02-20T07:37:26.697Z,101106.78
2024-02-20T07:40:28.906Z,101110.06
2024-02-20T07:43:33.154Z,101107.44
2024-02-20T07:46:36.158Z,101113.56
2024-02-20T07:49:38.792Z,101108.28
2024-02-20T07:52:42.695Z,101108.28
2024-02-20T07:55:45.538Z,101119.25
2024-02-20T07:58:48.210Z,101123.50
2024-02-20T08:01:51.279Z,101122.13
2024-02-20T08:04:53.953Z,101117.69
2024-02-20T08:07:56.199Z,101121.09
2024-02-20T08:10:58.735Z,101117.25
2024-02-20T08:14:01.021Z,101123.78
2024-02-20T08:17:03.419Z,101124.78
2024-02-20T08:20:05.805Z,101126.94
2024-02-20T08:23:08.323Z,101118.47
2024-02-20T08:26:10.804Z,101121.56
2024-02-20T08:29:13.744Z,101126.50
2024-02-20T08:32:16.107Z,101125.16
2024-02-20T08:35:18.911Z,101126.56
2024-02-20T08:38:21.400Z,101123.66
2024-02-20T08:41:23.866Z,101128.22
2024-02-20T08:44:26.081Z,101112.69
2024-02-20T08:47:28.800Z,101128.00
2024-02-20T08:50:31.303Z,101136.44
2024-02-20T08:53:33.729Z,101129.81
2024-02-20T08:56:36.298Z,101133.38
2024-02-20T08:59:38.692Z,101136.44
2024-02-20T09:02:41.303Z,101139.22
2024-02-20T09:05:43.816Z,101139.66
2024-02-20T09:08:46.253Z,101142.19
2024-02-20T09:11:48.775Z,101144.91
2024-02-20T09:14:51.123Z,101147.38
2024-02-20T09:17:53.714Z,101158.50
2024-02-20T09:20:56.870Z,101157.34
2024-02-20T09:23:59.433Z,101156.53
2024-02-20T09:27:02.863Z,101154.09
2024-02-20T09:30:08.297Z,101154.09
2024-02-20T09:33:10.574Z,101154.56
2024-02-20T09:36:13.004Z,101158.44
2024-02-20T09:39:15.075Z,101164.53
2024-02-20T09:42:28.955Z,101165.16
2024-02-20T09:45:31.897Z,101166.50
2024-02-20T09:48:35.265Z,101161.12
2024-02-20T09:51:38.825Z,101167.62
2024-02-20T09:54:45.592Z,101176.66
2024-02-20T09:57:50.821Z,101174.91
2024-02-20T10:00:54.624Z,101163.34
2024-02-20T10:03:58.663Z,101169.28
2024-02-20T10:07:06.819Z,101168.34
2024-02-20T10:10:10.725Z,101178.66
2024-02-20T10:13:13.764Z,101162.69
2024-02-20T10:16:17.603Z,101177.22
2024-02-20T10:19:21.465Z,101166.38
2024-02-20T10:22:25.232Z,101157.12
2024-02-20T10:25:27.770Z,101152.94
2024-02-20T10:28:31.749Z,101152.97
2024-02-20T10:31:34.475Z,101156.69
2024-02-20T10:34:37.060Z,101148.63
2024-02-20T10:37:40.068Z,101146.41
2024-02-20T10:40:42.833Z,101135.59
2024-02-20T10:43:46.854Z,101139.28
2024-02-20T10:46:49.371Z,101133.78
2024-02-20T10:49:52.706Z,101127.25
2024-02-20T10:52:56.015Z,101133.97
2024-02-20T10:55:59.605Z,101124.84
2024-02-20T10:59:04.802Z,101116.03
2024-02-20T11:02:07.231Z,101122.16
2024-02-20T11:05:17.805Z,101118.94
2024-02-20T11:08:25.775Z,101108.78
2024-02-20T11:11:31.188Z,101113.75
2024-02-20T11:14:33.352Z,101099.91
2024-02-20T11:17:36.291Z,101093.50
2024-02-20T11:20:39.309Z,101090.75
2024-02-20T11:23:41.699Z,101102.66
2024-02-20T11:26:46.101Z,101094.13
2024-02-20T11:29:48.571Z,101079.25
2024-02-20T11:32:55.303Z,101078.41
2024-02-20T11:35:58.176Z,101082.56
2024-02-20T11:39:07.069Z,101082.94
2024-02-20T11:42:09.988Z,101073.00
2024-02-20T11:45:22.412Z,101063.41
2024-02-20T11:48:25.104Z,101062.84
2024-02-20T11:51:27.816Z,101059.44
2024-02-20T11:54:30.196Z,101056.28
2024-02-20T11:57:32.477Z,101063.38
2024-02-20T12:00:38.950Z,101055.66
2024-02-20T12:03:44.347Z,101054.88
2024-02-20T12:06:46.603Z,101054.53
2024-02-20T12:09:55.459Z,101045.19
2024-02-20T12:12:57.634Z,101038.44
2024-02-20T12:16:00.135Z,101032.84
2024-02-20T12:19:10.474Z,101037.00
2024-02-20T12:22:22.777Z,101029.94
2024-02-20T12:25:25.174Z,101032.56
2024-02-20T12:28:27.663Z,101035.62
2024-02-20T12:31:31.976Z,101034.13
2024-02-20T12:34:41.434Z,101039.09
2024-02-20T12:37:47.667Z,101031.16
2024-02-20T12:40:50.162Z,101025.25
2024-02-20T12:43:52.737Z,101026.22
2024-02-20T12:46:55.259Z,101005.97
2024-02-20T12:49:57.955Z,101017.22
2024-02-20T12:53:00.497Z,101016.34
2024-02-20T12:56:03.463Z,101017.81
2024-02-20T12:59:05.859Z,101015.78
2024-02-20T13:02:08.544Z,101012.16
2024-02-20T13:05:11.560Z,101019.87
2024-02-20T13:08:14.104Z,101016.47
2024-02-20T13:11:18.597Z,101016.25
2024-02-20T13:14:21.787Z,101024.28
2024-02-20T13:17:26.362Z,101011.94
2024-02-20T13:20:32.373Z,101013.88
2024-02-20T13:23:34.755Z,101013.09
2024-02-20T13:26:37.648Z,101022.53
2024-02-20T13:29:40.111Z,101019.53
2024-02-20T13:32:42.420Z,101026.19
2024-02-20T13:35:44.990Z,101017.19
2024-02-20T13:38:48.309Z,101017.75
2024-02-20T13:41:50.837Z,101010.78
2024-02-20T13:44:52.959Z,101011.59
2024-02-20T13:47:55.426Z,101013.25
2024-02-20T13:50:58.358Z,101016.31
2024-02-20T13:54:02.077Z,100989.75
2024-02-20T13:57:04.218Z,101017.16
2024-02-20T14:00:08.157Z,101017.53
2024-02-20T14:03:18.372Z,101017.47
2024-02-20T14:06:21.135Z,101019.03
2024-02-20T14:09:24.966Z,101021.38
2024-02-20T14:12:30.169Z,101016.28
2024-02-20T14:15:32.715Z,101028.22
2024-02-20T14:18:35.163Z,101014.59
2024-02-20T14:21:37.299Z,101018.75
2024-02-20T14:24:39.791Z,101014.94
2024-02-20T14:27:41.941Z,101017.13
2024-02-20T14:30:49.439Z,101017.28
2024-02-20T14:33:56.162Z,101015.72
2024-02-20T14:36:58.615Z,101015.53
2024-02-20T14:40:00.700Z,101012.44
2024-02-20T14:43:05.229Z,101012.34
2024-02-20T14:46:07.429Z,101011.16
2024-02-20T14:49:10.385Z,101011.38
2024-02-20T14:52:12.565Z,101019.91
2024-02-20T14:55:15.175Z,101023.59
2024-02-20T14:58:17.360Z,101028.97
2024-02-20T15:01:24.385Z,101025.97
2024-02-20T15:04:28.511Z,101029.50
2024-02-20T15:07:31.114Z,101028.53
2024-02-20T15:10:34.022Z,101040.50
2024-02-20T15:13:36.496Z,101040.09
2024-02-20T15:16:38.715Z,101042.91
2024-02-20T15:19:41.512Z,101036.81
2024-02-20T15:22:43.780Z,101034.94
2024-02-20T15:25:46.934Z,101033.81
2024-02-20T15:28:49.230Z,101035.88
2024-02-20T15:31:51.790Z,101037.53
2024-02-20T15:34:54.904Z,101036.78
2024-02-20T15:37:57.693Z,101039.06
2024-02-20T15:41:00.889Z,101040.59
2024-02-20T15:44:03.385Z,101042.41
2024-02-20T15:47:06.754Z,101045.06
2024-02-20T15:50:09.751Z,101046.41
2024-02-20T15:53:14.381Z,101047.41
2024-02-20T15:56:17.233Z,101049.69
2024-02-20T15:59:19.629Z,101052.47
2024-02-20T16:02:22.324Z,101044.19
2024-02-20T16:05:25.179Z,101055.91
2024-02-20T16:08:28.498Z,101047.66
2024-02-20T16:11:31.052Z,101052.72
2024-02-20T16:14:34.158Z,101065.06
2024-02-20T16:17:39.933Z,101059.38
2024-02-20T16:20:43.267Z,101064.09
2024-02-20T16:23:45.702Z,101064.91
2024-02-20T16:26:49.029Z,101064.91
2024-02-20T16:29:56.873Z,101063.78
2024-02-20T16:33:00.473Z,101073.34
2024-02-20T16:36:03.046Z,101081.63
2024-02-20T16:39:05.518Z,101080.69
2024-02-20T16:42:07.902Z,101091.06
2024-02-20T16:45:10.262Z,101088.44
2024-02-20T16:48:13.338Z,101097.84
2024-02-20T16:51:15.561Z,101099.94
2024-02-20T16:54:18.025Z,101097.84
2024-02-20T16:57:20.157Z,101101.22
2024-02-20T17:00:23.498Z,101103.00
2024-02-20T17:03:26.003Z,101096.50
2024-02-20T17:06:28.871Z,101095.53
2024-02-20T17:09:31.141Z,101099.06
2024-02-20T17:12:33.508Z,101097.75
2024-02-20T17:15:35.738Z,101095.44
2024-02-20T17:18:38.241Z,101105.47
2024-02-20T17:21:40.508Z,101098.34
2024-02-20T17:24:43.002Z,101092.34
2024-02-20T17:27:45.275Z,101103.47
2024-02-20T17:30:50.597Z,101104.94
2024-02-20T17:33:54.142Z,101117.41
2024-02-20T17:36:57.256Z,101119.47
2024-02-20T17:40:00.977Z,101118.66
2024-02-20T17:43:03.502Z,101120.94
2024-02-20T17:46:05.720Z,101124.94
2024-02-20T17:49:08.142Z,101125.09
2024-02-20T17:52:10.987Z,101121.34
2024-02-20T17:55:13.545Z,101126.34
2024-02-20T17:58:15.790Z,101131.84
2024-02-20T18:01:21.629Z,101131.69
2024-02-20T18:04:25.215Z,101131.50
2024-02-20T18:07:27.924Z,101138.75
2024-02-20T18:10:30.462Z,101128.87
2024-02-20T18:13:33.024Z,101135.84
2024-02-20T18:16:35.971Z,101146.03
2024-02-20T18:19:38.154Z,101135.66
2024-02-20T18:22:40.628Z,101131.78
2024-02-20T18:25:42.879Z,101135.28
2024-02-20T18:28:45.423Z,101139.16
2024-02-20T18:31:48.457Z,101143.84
2024-02-20T18:34:51.142Z,101137.50
2024-02-20T18:37:53.410Z,101142.03
2024-02-20T18:40:56.376Z,101148.53
2024-02-20T18:43:59.602Z,101151.81
2024-02-20T18:47:02.317Z,101143.53
2024-02-20T18:50:05.885Z,101153.94
2024-02-20T18:53:08.529Z,101152.78
2024-02-20T18:56:10.832Z,101161.56
2024-02-20T18:59:13.294Z,101147.47
2024-02-20T19:02:26.998Z,101157.53
2024-02-20T19:05:35.095Z,101164.19
2024-02-20T19:08:45.063Z,101162.56
2024-02-20T19:11:48.291Z,101165.81
2024-02-20T19:14:50.947Z,101172.34
2024-02-20T19:17:55.762Z,101167.44
2024-02-20T19:20:58.164Z,101161.59
2024-02-20T19:24:05.561Z,101172.34
2024-02-20T19:27:08.842Z,101166.31
2024-02-20T19:30:11.437Z,101174.06
2024-02-20T19:33:14.225Z,101169.88
2024-02-20T19:36:17.297Z,101174.56
2024-02-20T19:39:19.648Z,101177.31
2024-02-20T19:42:28.018Z,101173.66
2024-02-20T19:45:30.737Z,101179.28
2024-02-20T19:48:33.318Z,101179.44
2024-02-20T19:51:37.465Z,101182.53
2024-02-20T19:54:40.441Z,101175.72
2024-02-20T19:57:42.634Z,101177.56
2024-02-20T20:00:48.391Z,101179.50
2024-02-20T20:03:53.191Z,101170.47
2024-02-20T20:06:55.360Z,101177.09
2024-02-20T20:09:57.911Z,101188.72
2024-02-20T20:13:05.043Z,101185.97
2024-02-20T20:16:07.769Z,101184.84
2024-02-20T20:19:10.508Z,101187.09
2024-02-20T20:22:13.214Z,101183.22
2024-02-20T20:25:16.724Z,101186.72
2024-02-20T20:28:20.863Z,101177.34
2024-02-20T20:31:23.130Z,101183.63
2024-02-20T20:34:26.412Z,101186.72
2024-02-20T20:37:28.647Z,101185.09
2024-02-20T20:40:31.237Z,101179.81
2024-02-20T20:43:33.408Z,101186.34
2024-02-20T20:46:36.332Z,101178.81
2024-02-20T20:49:43.618Z,101179.06
2024-02-20T20:52:46.248Z,101177.41
2024-02-20T20:55:48.500Z,101178.06
2024-02-20T20:58:51.087Z,101189.69
2024-02-20T21:01:53.387Z,101180.28
2024-02-20T21:04:55.991Z,101177.03
2024-02-20T21:07:58.275Z,101173.78
2024-02-20T21:11:01.338Z,101177.66
2024-02-20T21:14:03.824Z,101175.63
2024-02-20T21:17:06.572Z,101181.12
2024-02-20T21:20:11.430Z,101179.50
2024-02-20T21:23:17.611Z,101175.13
2024-02-20T21:26:24.386Z,101177.88
2024-02-20T21:29:26.821Z,101174.81
2024-02-20T21:32:28.973Z,101169.13
2024-02-20T21:35:31.770Z,101175.44
2024-02-20T21:38:35.318Z,101171.38
2024-02-20T21:41:39.779Z,101164.75
2024-02-20T21:44:41.909Z,101170.97
2024-02-20T21:47:44.484Z,101167.12
2024-02-20T21:50:46.810Z,101164.97
2024-02-20T21:53:50.483Z,101163.03
2024-02-20T21:56:52.710Z,101164.88
2024-02-20T21:59:57.169Z,101174.03
2024-02-20T22:02:59.311Z,101165.06
2024-02-20T22:06:02.114Z,101164.69
2024-02-20T22:09:04.387Z,101156.75
2024-02-20T22:12:06.944Z,101161.19
2024-02-20T22:15:09.781Z,101154.06
2024-02-20T22:18:12.325Z,101153.88
2024-02-20T22:21:18.311Z,101165.06
2024-02-20T22:24:21.173Z,101160.50
2024-02-20T22:27:23.357Z,101167.41
2024-02-20T22:30:25.750Z,101169.66
2024-02-20T22:33:29.658Z,101161.22
2024-02-20T22:36:32.163Z,101168.34
2024-02-20T22:39:34.260Z,101168.94
2024-02-20T22:42:36.805Z,101170.88
2024-02-20T22:45:39.069Z,101173.41
2024-02-20T22:48:41.664Z,101175.66
2024-02-20T22:51:44.593Z,101173.75
2024-02-20T22:54:49.518Z,101167.72
2024-02-20T22:57:51.875Z,101173.19
2024-02-20T23:00:54.718Z,101173.19
2024-02-20T23:03:57.018Z,101170.56
2024-02-20T23:06:59.509Z,101166.72
2024-02-20T23:10:01.669Z,101166.72
2024-02-20T23:13:04.344Z,101161.72
2024-02-20T23:16:06.840Z,101163.97
2024-02-20T23:19:09.318Z,101175.44
2024-02-20T23:22:11.601Z,101171.38
2024-02-20T23:25:14.643Z,101166.72
2024-02-20T23:28:16.941Z,101167.91
2024-02-20T23:31:19.351Z,101158.84
2024-02-20T23:34:21.628Z,101156.91
2024-02-20T23:37:24.112Z,101155.28
2024-02-20T23:40:26.285Z,101150.81
2024-02-20T23:43:28.832Z,101134.12
2024-02-20T23:46:31.348Z,101143.50
2024-02-20T23:49:33.811Z,101143.28
2024-02-20T23:52:35.951Z,101138.91
2024-02-20T23:55:38.358Z,101140.03
2024-02-20T23:58:41.902Z,101147.12
